createdAt,value
2022-07-30T00:09:03.508Z,33.7219
2022-07-30T00:24:05.339Z,33.3647
2022-07-30T00:39:07.166Z,34.7619
2022-07-30T00:54:09.028Z,34.1645
2022-07-30T01:09:10.862Z,33.6346
2022-07-30T01:24:12.683Z,34.1379
2022-07-30T01:39:14.505Z,34.1348
2022-07-30T01:54:16.339Z,34.6944
2022-07-30T02:09:18.165Z,32.6008
2022-07-30T02:24:20.002Z,32.0709
2022-07-30T02:39:21.831Z,32.3959
2022-07-30T02:54:23.662Z,32.9908
2022-07-30T03:09:25.481Z,33.2539
2022-07-30T03:24:27.302Z,32.3309
2022-07-30T03:39:29.138Z,32.1099
2022-07-30T03:54:30.976Z,31.4401
2022-07-30T04:09:32.816Z,32.4089
2022-07-30T04:24:34.637Z,31.021
2022-07-30T04:39:36.474Z,32.477
2022-07-30T04:54:38.313Z,32.0517
2022-07-30T05:09:40.106Z,32.9871
2022-07-30T05:24:45.445Z,32.4968
2022-07-30T05:39:57.422Z,32.0938
2022-07-30T05:55:05.341Z,30.7932
2022-07-30T06:10:07.187Z,30.124
2022-07-30T06:25:09.051Z,31.1182
2022-07-30T06:40:11.001Z,31.0501
2022-07-30T06:55:12.827Z,30.5982
2022-07-30T07:10:14.649Z,30.7381
2022-07-30T07:25:16.472Z,31.775
2022-07-30T07:40:18.289Z,32.5259
2022-07-30T07:55:20.147Z,33.3059
2022-07-30T08:10:21.982Z,33.7578
2022-07-30T08:25:24.509Z,34.0116
2022-07-30T08:40:26.471Z,34.2778
2022-07-30T08:55:28.300Z,33.7151
2022-07-30T09:10:30.181Z,32.8998
2022-07-30T09:25:32.007Z,32.1947
2022-07-30T09:40:33.837Z,32.1421
2022-07-30T09:55:35.659Z,29.7959
2022-07-30T10:10:46.968Z,29.422
2022-07-30T10:25:55.689Z,30.293
2022-07-30T10:40:57.541Z,29.786
2022-07-30T10:56:00.797Z,29.7563
2022-07-30T11:11:16.213Z,28.2582
2022-07-30T11:26:21.945Z,27.6503
2022-07-30T11:41:26.818Z,25.4824
2022-07-30T11:56:28.644Z,26.4246
2022-07-30T12:11:30.499Z,26.4438
2022-07-30T12:26:32.319Z,25.8879
2022-07-30T12:41:34.139Z,24.2338
2022-07-30T12:56:35.965Z,24.4839
2022-07-30T13:11:37.802Z,25.1698
2022-07-30T13:26:39.623Z,25.592
2022-07-30T13:41:41.464Z,25.436
2022-07-30T13:56:43.247Z,25.3258
2022-07-30T14:11:45.025Z,25.8681
2022-07-30T14:26:46.862Z,27.1037
2022-07-30T14:41:48.686Z,27.7605
2022-07-30T14:56:58.611Z,27.9945
2022-07-30T15:12:08.838Z,28.3065
2022-07-30T15:27:11.413Z,28.2935
2022-07-30T15:42:13.241Z,28.6637
2022-07-30T15:57:15.050Z,28.8754
2022-07-30T16:12:16.919Z,29.8634
2022-07-30T16:27:18.750Z,29.9284
2022-07-30T16:42:22.838Z,30.9164
2022-07-30T16:57:24.709Z,31.3974
2022-07-30T17:12:27.074Z,31.4432
2022-07-30T17:27:29.325Z,31.359
2022-07-30T17:42:31.137Z,32.4702
2022-07-30T17:57:32.952Z,32.555
2022-07-30T18:12:34.789Z,33.1171
2022-07-30T18:27:40.002Z,33.3579
2022-07-30T18:42:41.833Z,33.9559
2022-07-30T18:57:43.664Z,33.7869
2022-07-30T19:12:45.475Z,34.3397
2022-07-30T19:27:48.416Z,34.6319
2022-07-30T19:42:50.608Z,34.7755
2022-07-30T19:57:57.500Z,35.1265
2022-07-30T20:12:59.329Z,36.1764
2022-07-30T20:28:01.733Z,36.8264
2022-07-30T20:43:04.230Z,37.3334
2022-07-30T20:58:11.144Z,37.5581
2022-07-30T21:13:16.048Z,37.763
2022-07-30T21:28:18.452Z,38.491
2022-07-30T21:43:30.456Z,35.6211
2022-07-30T21:58:35.446Z,34.9804
2022-07-30T22:13:53.479Z,32.2467
2022-07-30T22:28:56.106Z,32.3928
2022-07-30T22:43:58.097Z,30.8179
2022-07-30T22:45:42.293Z,30.9318
2022-07-30T23:00:51.165Z,31.2377
2022-07-30T23:15:53.042Z,30.7276
2022-07-30T23:30:54.921Z,31.3479
2022-07-30T23:45:56.836Z,30.9189
